KFST/FST METAR and TAF weather

Enter ICAO airport designator
Station Type Date Time Source
KFST METAR 2018/12/13 08:53 UTC NOAA

KFST 130853Z AUTO 23010KT 10SM CLR 11/05 A2978 RMK AO2 SLP052 T01110050 56010


Station Type Date Time Source
KFST Decoded METAR 2018/12/13 08:53 UTC NOAA

FORT STOCKTON PECOS CO AIRPORT , TX, United States (KFST) 30-55N 102-55W 918M
Dec 13, 2018 - 03:53 AM EST / 2018.12.13 0853 UTC
Wind: from the SW (230 degrees) at 12 MPH (10 KT):0
Visibility: 10 mile(s):0
Sky conditions: clear
Temperature: 52.0 F (11.1 C)
Dew Point: 41.0 F (5.0 C)
Relative Humidity: 66%
Pressure (altimeter): 29.78 in. Hg (1008 hPa)
Pressure tendency: 0.03 inches (1.0 hPa) lower than three hours ago
ob: KFST 130853Z AUTO 23010KT 10SM CLR 11/05 A2978 RMK AO2 SLP052 T01110050 56010
cycle: 9

Station Type Date Time Source
KFST TAF 2018/12/13 08:24 UTC NOAA

TAF
AMD KFST 130821Z 1308/1406 23011KT P6SM SKC
FM131000 27020G30KT P6SM SCT100
FM131200 30028G38KT P6SM SCT050 BKN100
FM131500 33032G42KT 6SM BLDU BKN050 OVC100
FM132300 32018G28KT P6SM SCT050 BKN100
FM140200 30011G20KT P6SM SKC


Example: see airport list